Time;durP1;ratioP1;P1;durP2;ratioP2;P2;SDS_P1;SDS_P2;PMS_P1;PMS_P2;Temp;Humidity;BMP_temperature;BMP_pressure;BME280_temperature;BME280_humidity;BME280_pressure;Samples;Min_cycle;Max_cycle;Signal;HPM_P1;HPM_P2
2022/10/01 00:00:53;;;;;;;1.98;0.73;;;15.30;99.90;;;;;;5013270;28;20477;-59
2022/10/01 00:03:20;;;;;;;2.63;0.20;;;15.20;99.90;;;;;;5008627;28;20029;-60
2022/10/01 00:05:46;;;;;;;5.75;0.60;;;15.10;99.90;;;;;;5016880;28;20048;-60
2022/10/01 00:08:15;;;;;;;2.65;0.82;;;15.10;99.90;;;;;;5009625;28;20104;-59
2022/10/01 00:10:44;;;;;;;5.05;0.77;;;15.10;99.90;;;;;;5022583;28;20022;-59
2022/10/01 00:13:10;;;;;;;3.47;0.50;;;15.10;99.90;;;;;;5014289;28;20515;-59
2022/10/01 00:15:39;;;;;;;5.15;0.82;;;15.10;99.90;;;;;;5022351;28;20049;-59
2022/10/01 00:18:07;;;;;;;4.95;0.70;;;15.10;99.90;;;;;;5019435;28;20025;-60
2022/10/01 00:20:34;;;;;;;4.32;0.60;;;15.20;99.90;;;;;;5010446;28;20556;-59
2022/10/01 00:22:59;;;;;;;1.23;0.38;;;15.20;99.90;;;;;;5011138;28;20030;-58
2022/10/01 00:25:25;;;;;;;0.60;0.20;;;15.10;99.90;;;;;;5008114;28;20609;-59
2022/10/01 00:27:51;;;;;;;1.65;0.55;;;15.10;99.90;;;;;;4992792;28;20060;-59
2022/10/01 00:30:17;;;;;;;1.85;1.00;;;15.00;99.90;;;;;;5017121;28;20385;-60
2022/10/01 00:32:43;;;;;;;4.10;0.50;;;14.90;99.90;;;;;;5018874;28;20556;-57
2022/10/01 00:35:08;;;;;;;1.90;0.40;;;15.00;99.90;;;;;;5017330;28;20117;-60
2022/10/01 00:37:38;;;;;;;5.50;0.63;;;14.90;99.90;;;;;;5009687;28;20108;-59
2022/10/01 00:40:05;;;;;;;3.22;0.32;;;14.90;99.90;;;;;;5021473;28;20034;-60
2022/10/01 00:42:31;;;;;;;5.93;1.00;;;14.90;99.90;;;;;;4994330;28;20034;-60
2022/10/01 00:45:01;;;;;;;2.67;0.57;;;14.90;99.90;;;;;;5008605;28;20095;-59
2022/10/01 00:47:39;;;;;;;3.30;0.63;;;14.90;99.90;;;;;;5015818;28;20048;-60
2022/10/01 00:50:31;;;;;;;5.80;0.63;;;14.80;99.90;;;;;;5009210;28;20037;-59
2022/10/01 00:53:02;;;;;;;5.53;0.47;;;14.70;99.90;;;;;;5011413;28;20398;-59
2022/10/01 00:55:39;;;;;;;4.32;0.88;;;14.70;99.90;;;;;;5014305;28;20034;-60
2022/10/01 00:58:07;;;;;;;2.47;0.80;;;14.80;99.90;;;;;;5008320;28;20133;-60
2022/10/01 01:00:35;;;;;;;5.15;0.70;;;14.80;99.90;;;;;;5007397;28;20556;-58
2022/10/01 01:03:01;;;;;;;1.85;0.55;;;14.80;99.90;;;;;;5008974;28;20478;-58
2022/10/01 01:05:27;;;;;;;3.60;0.68;;;14.70;99.90;;;;;;5019061;28;20075;-59
2022/10/01 01:07:53;;;;;;;5.07;0.75;;;14.70;99.90;;;;;;5009287;28;20034;-59
2022/10/01 01:10:27;;;;;;;1.40;0.30;;;14.70;99.90;;;;;;5025737;28;20389;-59
2022/10/01 01:13:20;;;;;;;1.40;0.35;;;14.70;99.90;;;;;;5007959;28;20034;-59
2022/10/01 01:15:49;;;;;;;4.35;1.02;;;14.70;99.90;;;;;;5012269;28;20045;-59
2022/10/01 01:18:39;;;;;;;4.68;0.55;;;14.60;99.90;;;;;;5014431;28;20030;-59
2022/10/01 01:21:09;;;;;;;4.93;0.80;;;14.60;99.90;;;;;;5021270;28;20052;-59
2022/10/01 01:23:58;;;;;;;6.30;0.82;;;14.60;99.90;;;;;;5011667;28;20029;-59
2022/10/01 01:26:49;;;;;;;5.03;0.75;;;14.60;99.90;;;;;;5015289;28;20033;-59
2022/10/01 01:29:49;;;;;;;3.33;1.02;;;14.50;99.90;;;;;;5020421;28;20457;-59
2022/10/01 01:32:26;;;;;;;1.95;0.40;;;14.50;99.90;;;;;;4997073;28;20089;-59
2022/10/01 01:34:54;;;;;;;5.63;0.75;;;14.30;99.90;;;;;;5021076;28;20112;-59
2022/10/01 01:37:25;;;;;;;2.03;0.75;;;14.20;99.90;;;;;;5020115;28;20026;-59
2022/10/01 01:39:55;;;;;;;5.70;0.88;;;14.10;99.90;;;;;;5024522;28;20029;-59
2022/10/01 01:42:28;;;;;;;3.78;0.65;;;14.20;99.90;;;;;;5016679;28;20018;-58
2022/10/01 01:44:58;;;;;;;2.95;0.45;;;14.20;99.90;;;;;;5022410;28;20064;-60
2022/10/01 01:47:28;;;;;;;0.93;0.52;;;14.10;99.90;;;;;;5018833;28;20105;-59
2022/10/01 01:49:54;;;;;;;7.70;0.85;;;14.10;99.90;;;;;;5021419;28;20037;-58
2022/10/01 01:52:20;;;;;;;5.45;1.10;;;14.10;99.90;;;;;;5018937;28;20390;-59
2022/10/01 01:54:48;;;;;;;4.45;1.02;;;14.10;99.90;;;;;;5009944;28;20026;-58
2022/10/01 01:57:16;;;;;;;6.93;1.17;;;14.10;99.90;;;;;;5018112;28;20049;-58
2022/10/01 01:59:42;;;;;;;8.20;1.10;;;14.20;99.90;;;;;;5024211;28;20132;-58
2022/10/01 02:02:18;;;;;;;6.97;2.13;;;14.10;99.90;;;;;;5010186;28;20029;-59
2022/10/01 02:04:54;;;;;;;2.53;0.80;;;14.20;99.90;;;;;;5015590;28;20044;-59
2022/10/01 02:07:35;;;;;;;1.90;0.93;;;14.20;99.90;;;;;;5015846;28;20037;-58
2022/10/01 02:10:15;;;;;;;7.45;1.55;;;14.30;99.90;;;;;;5009224;28;20029;-59
2022/10/01 02:12:44;;;;;;;4.70;0.55;;;14.30;99.90;;;;;;5019913;28;20034;-59
2022/10/01 02:15:26;;;;;;;8.85;1.17;;;14.20;99.90;;;;;;5013646;28;20065;-56
2022/10/01 02:17:58;;;;;;;5.45;0.65;;;14.20;99.90;;;;;;5025213;28;20401;-58
2022/10/01 02:20:38;;;;;;;4.70;0.65;;;14.20;99.90;;;;;;5003080;28;20041;-59
2022/10/01 02:23:14;;;;;;;5.43;1.00;;;14.20;99.90;;;;;;5015268;28;20025;-59
2022/10/01 02:25:45;;;;;;;3.08;0.77;;;14.20;99.90;;;;;;5013063;28;20045;-59
2022/10/01 02:28:18;;;;;;;1.10;0.40;;;14.10;99.90;;;;;;5011969;28;20053;-59
2022/10/01 02:30:44;;;;;;;4.63;0.98;;;14.20;99.90;;;;;;5013420;28;20033;-59
2022/10/01 02:33:14;;;;;;;2.38;0.90;;;14.30;99.90;;;;;;5015951;28;20092;-59
2022/10/01 02:35:42;;;;;;;6.95;0.98;;;14.30;99.90;;;;;;5013200;28;20029;-59
2022/10/01 02:38:09;;;;;;;6.95;1.27;;;14.20;99.90;;;;;;5018967;28;20493;-59
2022/10/01 02:40:40;;;;;;;3.47;0.88;;;14.20;99.90;;;;;;5015357;28;20034;-59
2022/10/01 02:43:16;;;;;;;4.57;0.77;;;14.20;99.90;;;;;;5007040;28;20077;-59
2022/10/01 02:45:46;;;;;;;7.85;0.70;;;14.20;99.90;;;;;;5024118;28;20031;-59
2022/10/01 02:48:16;;;;;;;3.33;1.20;;;14.20;99.90;;;;;;5018803;28;20481;-58
2022/10/01 02:50:48;;;;;;;6.28;0.63;;;14.10;99.90;;;;;;5027012;28;20060;-59
2022/10/01 02:53:21;;;;;;;8.77;1.48;;;14.10;99.90;;;;;;5018676;28;20128;-58
2022/10/01 02:55:48;;;;;;;5.97;0.80;;;14.00;99.90;;;;;;5017309;28;20521;-58
2022/10/01 02:58:16;;;;;;;5.72;0.82;;;14.00;99.90;;;;;;5025114;28;20116;-58
2022/10/01 03:00:41;;;;;;;6.90;1.35;;;14.00;99.90;;;;;;5025797;28;20021;-59
2022/10/01 03:03:07;;;;;;;5.65;1.10;;;14.00;99.90;;;;;;5013700;28;20025;-59
2022/10/01 03:05:33;;;;;;;2.90;1.08;;;14.10;99.90;;;;;;5022061;28;20485;-58
2022/10/01 03:07:59;;;;;;;6.47;0.95;;;14.00;99.90;;;;;;5020364;28;20080;-58
2022/10/01 03:10:24;;;;;;;7.85;1.58;;;13.90;99.90;;;;;;5015926;28;20768;-58
2022/10/01 03:12:50;;;;;;;4.20;1.00;;;13.80;99.90;;;;;;5011745;28;20072;-58
2022/10/01 03:15:20;;;;;;;5.57;0.90;;;13.90;99.90;;;;;;5024344;28;20105;-59
2022/10/01 03:17:53;;;;;;;6.40;0.95;;;13.80;99.90;;;;;;5021965;28;20107;-59
2022/10/01 03:20:19;;;;;;;10.15;2.45;;;13.70;99.90;;;;;;4995480;28;20109;-59
2022/10/01 03:22:45;;;;;;;3.63;0.90;;;13.60;99.90;;;;;;5010612;28;20122;-59
2022/10/01 03:25:12;;;;;;;10.45;1.15;;;13.60;99.90;;;;;;5017752;28;20033;-59
2022/10/01 03:27:37;;;;;;;6.30;1.27;;;13.50;99.90;;;;;;5021597;28;20445;-59
2022/10/01 03:30:04;;;;;;;5.45;0.90;;;13.50;99.90;;;;;;5020453;28;20053;-59
2022/10/01 03:32:31;;;;;;;4.55;0.77;;;13.50;99.90;;;;;;5012306;28;20375;-59
2022/10/01 03:34:57;;;;;;;5.22;0.73;;;13.40;99.90;;;;;;5021525;28;20026;-59
2022/10/01 03:37:23;;;;;;;3.97;0.77;;;13.40;99.90;;;;;;5012835;28;20025;-59
2022/10/01 03:39:49;;;;;;;5.78;0.80;;;13.30;99.90;;;;;;5016603;28;20469;-59
2022/10/01 03:42:15;;;;;;;3.38;0.80;;;13.30;99.90;;;;;;5012589;22;20050;-59
2022/10/01 03:44:41;;;;;;;9.75;1.65;;;13.30;99.90;;;;;;4989977;28;20037;-58
2022/10/01 03:47:08;;;;;;;2.88;0.82;;;13.20;99.90;;;;;;4989063;28;20045;-58
2022/10/01 03:49:34;;;;;;;6.43;1.40;;;13.10;99.90;;;;;;4981265;28;20038;-58
2022/10/01 03:52:01;;;;;;;6.47;0.98;;;13.20;99.90;;;;;;4969874;28;20406;-59
2022/10/01 03:54:29;;;;;;;13.45;1.10;;;13.10;99.90;;;;;;4980556;28;20026;-60
2022/10/01 03:56:54;;;;;;;5.82;0.52;;;13.10;99.90;;;;;;4980462;28;20101;-60
2022/10/01 03:59:20;;;;;;;10.60;1.30;;;13.10;99.90;;;;;;4977400;28;20026;-60
2022/10/01 04:01:46;;;;;;;5.93;1.08;;;13.10;99.90;;;;;;4979225;28;20038;-59
2022/10/01 04:04:12;;;;;;;3.20;0.65;;;13.00;99.90;;;;;;4987125;28;20540;-60
2022/10/01 04:06:37;;;;;;;11.38;1.42;;;13.10;99.90;;;;;;4984664;28;20080;-60
2022/10/01 04:09:04;;;;;;;9.93;0.85;;;13.10;99.90;;;;;;4987283;28;20034;-59
2022/10/01 04:11:29;;;;;;;8.60;1.45;;;13.20;99.90;;;;;;4971349;28;20028;-59
2022/10/01 04:13:56;;;;;;;6.53;1.30;;;13.20;99.90;;;;;;4971774;28;20081;-60
2022/10/01 04:16:23;;;;;;;3.47;0.88;;;13.30;99.90;;;;;;4971538;28;20110;-59
2022/10/01 04:18:49;;;;;;;8.27;1.67;;;13.30;99.90;;;;;;4973466;28;20030;-59
2022/10/01 04:21:16;;;;;;;5.35;1.73;;;13.20;99.90;;;;;;4968229;28;20026;-58
2022/10/01 04:23:42;;;;;;;8.32;1.70;;;13.40;99.90;;;;;;4977473;28;20031;-59
2022/10/01 04:26:08;;;;;;;12.35;1.30;;;13.50;99.90;;;;;;4972366;28;20429;-60
2022/10/01 04:28:34;;;;;;;8.18;1.88;;;13.50;99.90;;;;;;4978313;28;20034;-60
2022/10/01 04:33:44;;;;;;;8.75;1.38;;;13.50;99.90;;;;;;4982468;28;20148;-59
2022/10/01 04:36:10;;;;;;;6.30;0.82;;;13.60;99.90;;;;;;4973318;28;20426;-60
2022/10/01 04:38:36;;;;;;;7.18;1.70;;;13.50;99.90;;;;;;4971221;28;20118;-58
2022/10/01 04:41:02;;;;;;;6.13;1.30;;;13.50;99.90;;;;;;4976607;28;20101;-59
2022/10/01 04:43:27;;;;;;;8.50;1.77;;;13.40;99.90;;;;;;4979902;28;20062;-58
2022/10/01 04:45:53;;;;;;;7.10;0.77;;;13.40;99.90;;;;;;4976399;28;20085;-59
2022/10/01 04:48:18;;;;;;;9.32;2.03;;;13.40;99.90;;;;;;4968467;28;20046;-58
2022/10/01 04:50:44;;;;;;;7.25;1.00;;;13.30;99.90;;;;;;4970334;28;20035;-59
2022/10/01 04:53:10;;;;;;;11.57;2.50;;;13.20;99.90;;;;;;4976863;28;20101;-58
2022/10/01 04:55:35;;;;;;;7.82;1.33;;;13.20;99.90;;;;;;4975873;28;20022;-58
2022/10/01 04:58:01;;;;;;;10.88;1.38;;;13.30;99.90;;;;;;4975688;28;20038;-59
2022/10/01 05:00:27;;;;;;;6.68;1.65;;;13.40;99.90;;;;;;4971545;28;20110;-60
2022/10/01 05:02:53;;;;;;;9.73;2.63;;;13.40;99.90;;;;;;4978621;28;20078;-59
2022/10/01 05:05:21;;;;;;;10.52;1.13;;;13.30;99.90;;;;;;4981119;28;20499;-59
2022/10/01 05:07:47;;;;;;;7.35;1.70;;;13.30;99.90;;;;;;4976249;28;20042;-59
2022/10/01 05:10:18;;;;;;;9.60;1.40;;;13.30;99.90;;;;;;4976581;28;20027;-59
2022/10/01 05:12:47;;;;;;;12.50;2.63;;;13.30;99.90;;;;;;4978316;28;20047;-58
2022/10/01 05:15:15;;;;;;;4.40;1.45;;;13.30;99.90;;;;;;4966122;28;20376;-59
2022/10/01 05:17:40;;;;;;;7.10;1.25;;;13.20;99.90;;;;;;4973826;28;20473;-59
2022/10/01 05:20:10;;;;;;;10.50;1.52;;;13.30;99.90;;;;;;4975694;28;20031;-59
2022/10/01 05:22:36;;;;;;;10.15;2.17;;;13.20;99.90;;;;;;4978114;28;20034;-59
2022/10/01 05:25:02;;;;;;;8.80;1.00;;;13.20;99.90;;;;;;4975061;28;20455;-58
2022/10/01 05:27:30;;;;;;;7.43;1.20;;;13.10;99.90;;;;;;4973407;28;20062;-59
2022/10/01 05:29:56;;;;;;;5.88;0.85;;;13.10;99.90;;;;;;4983241;28;20065;-59
2022/10/01 05:32:21;;;;;;;5.53;1.45;;;13.00;99.90;;;;;;4974356;28;20075;-59
2022/10/01 05:34:47;;;;;;;10.48;2.03;;;13.00;99.90;;;;;;4982358;28;20386;-58
2022/10/01 05:37:14;;;;;;;11.48;1.42;;;13.00;99.90;;;;;;4976174;28;20391;-58
2022/10/01 05:39:39;;;;;;;8.43;1.23;;;13.00;99.90;;;;;;4976105;28;20031;-58
2022/10/01 05:42:05;;;;;;;7.40;0.95;;;13.00;99.90;;;;;;4977822;28;20512;-59
2022/10/01 05:44:36;;;;;;;4.97;1.90;;;12.90;99.90;;;;;;4975967;28;20027;-58
2022/10/01 05:47:04;;;;;;;3.40;0.68;;;12.80;99.90;;;;;;4971777;28;20035;-59
2022/10/01 05:49:29;;;;;;;7.75;1.33;;;12.80;99.90;;;;;;4979115;28;20030;-59
2022/10/01 05:51:55;;;;;;;4.28;1.15;;;12.80;99.90;;;;;;4982179;28;20038;-59
2022/10/01 05:54:22;;;;;;;6.25;0.93;;;12.80;99.90;;;;;;4977024;28;20030;-59
2022/10/01 05:56:48;;;;;;;8.90;1.75;;;12.90;99.90;;;;;;4969209;28;20106;-59
2022/10/01 05:59:14;;;;;;;5.75;1.33;;;12.90;99.90;;;;;;4980610;28;20041;-58
2022/10/01 06:01:39;;;;;;;4.00;0.93;;;12.80;99.90;;;;;;4973176;28;20027;-58
2022/10/01 06:04:05;;;;;;;14.82;3.30;;;12.80;99.90;;;;;;4987564;28;20433;-58
2022/10/01 06:06:31;;;;;;;9.30;1.10;;;12.70;99.90;;;;;;4974734;28;20031;-59
2022/10/01 06:08:58;;;;;;;11.43;0.98;;;12.70;99.90;;;;;;4976800;28;20046;-59
2022/10/01 06:11:23;;;;;;;11.77;0.93;;;12.80;99.90;;;;;;4975918;28;20023;-58
2022/10/01 06:13:49;;;;;;;8.65;1.88;;;12.90;99.90;;;;;;4986201;28;20438;-59
2022/10/01 06:16:15;;;;;;;4.82;0.90;;;12.90;99.90;;;;;;4971111;28;20042;-58
2022/10/01 06:18:41;;;;;;;8.95;2.20;;;12.90;99.90;;;;;;4979321;28;20479;-58
2022/10/01 06:21:08;;;;;;;10.73;1.92;;;13.00;99.90;;;;;;4979322;28;20027;-58
2022/10/01 06:23:35;;;;;;;13.13;2.33;;;13.10;99.90;;;;;;4980632;28;20062;-58
2022/10/01 06:26:02;;;;;;;14.90;1.45;;;13.20;99.90;;;;;;4976722;28;20027;-59
2022/10/01 06:28:27;;;;;;;7.78;1.35;;;13.10;99.90;;;;;;4974456;28;20488;-58
2022/10/01 06:30:53;;;;;;;8.15;1.13;;;13.10;99.90;;;;;;4973723;28;20121;-60
2022/10/01 06:33:19;;;;;;;5.93;1.20;;;13.00;99.90;;;;;;4980113;28;20069;-60
2022/10/01 06:35:47;;;;;;;9.82;2.15;;;13.10;99.90;;;;;;4976615;28;20033;-60
2022/10/01 06:38:15;;;;;;;9.32;1.70;;;13.10;99.90;;;;;;4986632;28;20038;-59
2022/10/01 06:40:41;;;;;;;6.45;0.77;;;13.20;99.90;;;;;;4980065;28;20027;-61
2022/10/01 06:43:07;;;;;;;9.95;1.58;;;13.20;99.90;;;;;;4970593;28;20057;-60
2022/10/01 06:45:41;;;;;;;13.10;1.40;;;13.30;99.90;;;;;;4967421;28;20062;-60
2022/10/01 06:48:08;;;;;;;6.85;0.98;;;13.30;99.90;;;;;;4978077;28;20037;-59
2022/10/01 06:50:34;;;;;;;21.70;2.67;;;13.30;99.90;;;;;;4975905;28;20053;-59
2022/10/01 06:53:00;;;;;;;13.65;2.40;;;13.30;99.90;;;;;;4971845;28;20046;-60
2022/10/01 06:55:32;;;;;;;14.82;2.22;;;13.30;99.90;;;;;;4969685;28;20054;-60
2022/10/01 06:58:00;;;;;;;8.23;0.87;;;13.30;99.90;;;;;;4978595;28;20030;-58
2022/10/01 07:00:27;;;;;;;8.90;0.82;;;13.20;99.90;;;;;;4971470;28;20023;-59
2022/10/01 07:02:54;;;;;;;9.70;1.73;;;13.30;99.90;;;;;;4971422;28;20034;-61
2022/10/01 07:05:21;;;;;;;7.18;0.63;;;13.30;99.90;;;;;;4968245;28;20114;-58
2022/10/01 07:07:49;;;;;;;2.53;0.90;;;13.20;99.90;;;;;;4971742;28;20068;-59
2022/10/01 07:10:19;;;;;;;6.97;1.05;;;13.30;99.90;;;;;;4971354;28;20027;-58
2022/10/01 07:12:47;;;;;;;4.57;1.20;;;13.30;99.90;;;;;;4971661;28;20051;-58
2022/10/01 07:15:14;;;;;;;5.85;1.08;;;13.30;99.90;;;;;;4973895;28;20031;-59
2022/10/01 07:17:50;;;;;;;5.53;0.93;;;13.30;99.90;;;;;;4971414;28;20031;-59
2022/10/01 07:20:18;;;;;;;8.98;2.17;;;13.30;99.90;;;;;;4965996;28;20052;-59
2022/10/01 07:22:44;;;;;;;6.72;0.77;;;13.30;99.90;;;;;;4976536;28;20077;-60
2022/10/01 07:25:10;;;;;;;3.90;0.98;;;13.30;99.90;;;;;;4972066;28;20794;-61
2022/10/01 07:27:37;;;;;;;3.53;1.13;;;13.40;99.90;;;;;;4965482;28;20106;-60
2022/10/01 07:30:04;;;;;;;7.32;1.30;;;13.50;99.90;;;;;;4970027;28;20482;-59
2022/10/01 07:32:30;;;;;;;7.00;2.15;;;13.50;99.90;;;;;;4970333;28;20108;-57
2022/10/01 07:34:57;;;;;;;6.68;1.88;;;13.60;99.90;;;;;;4977558;28;20402;-59
2022/10/01 07:37:23;;;;;;;6.63;1.15;;;13.60;99.90;;;;;;4974358;28;20031;-60
2022/10/01 07:39:49;;;;;;;8.88;1.38;;;13.70;99.90;;;;;;4967146;28;20034;-59
2022/10/01 07:42:15;;;;;;;6.07;0.80;;;13.70;99.90;;;;;;4969899;28;20356;-58
2022/10/01 07:44:40;;;;;;;6.80;1.30;;;13.70;99.90;;;;;;4972729;28;20046;-59
2022/10/01 07:47:06;;;;;;;13.65;1.00;;;13.80;99.90;;;;;;4976778;28;20030;-58
2022/10/01 07:49:32;;;;;;;6.75;1.00;;;13.90;99.90;;;;;;4971511;28;20434;-58
2022/10/01 07:51:57;;;;;;;9.52;1.50;;;14.00;99.90;;;;;;4971525;28;20034;-59
2022/10/01 07:54:24;;;;;;;8.77;1.08;;;14.10;99.90;;;;;;4973599;28;20540;-60
2022/10/01 07:56:54;;;;;;;8.73;1.50;;;14.20;99.90;;;;;;4976465;28;20026;-58
2022/10/01 07:59:26;;;;;;;8.68;1.00;;;14.40;99.90;;;;;;4967380;28;20360;-60
2022/10/01 08:01:52;;;;;;;7.15;1.00;;;14.50;99.90;;;;;;4977747;28;20022;-60
2022/10/01 08:07:04;;;;;;;6.70;0.57;;;14.80;99.90;;;;;;4974860;28;20545;-59
2022/10/01 08:09:30;;;;;;;2.80;0.63;;;14.90;99.90;;;;;;4971841;28;20145;-59
2022/10/01 08:11:56;;;;;;;9.38;1.15;;;15.00;99.90;;;;;;4969503;28;20169;-59
2022/10/01 08:14:21;;;;;;;6.88;1.63;;;15.00;99.90;;;;;;4966810;28;20390;-60
2022/10/01 08:16:47;;;;;;;6.80;0.80;;;15.20;99.90;;;;;;4976495;28;20550;-59
2022/10/01 08:19:14;;;;;;;6.30;1.45;;;15.20;99.90;;;;;;4966776;28;20479;-59
2022/10/01 08:21:40;;;;;;;8.70;2.35;;;15.20;99.90;;;;;;4970903;28;20030;-58
2022/10/01 08:24:07;;;;;;;9.48;1.08;;;15.20;99.90;;;;;;4979086;28;20026;-58
2022/10/01 08:26:32;;;;;;;6.32;1.58;;;15.20;99.90;;;;;;4979575;28;20027;-58
2022/10/01 08:28:58;;;;;;;3.85;0.82;;;15.40;99.90;;;;;;4969305;28;20557;-58
2022/10/01 08:31:25;;;;;;;7.28;0.95;;;15.30;99.90;;;;;;4971411;28;20030;-59
2022/10/01 08:33:51;;;;;;;11.35;0.98;;;15.30;99.90;;;;;;4973336;28;20042;-59
2022/10/01 08:36:18;;;;;;;6.03;1.80;;;15.50;99.90;;;;;;4978862;28;20387;-59
2022/10/01 08:38:48;;;;;;;4.57;0.93;;;15.60;99.90;;;;;;4974852;28;20030;-59
2022/10/01 08:41:45;;;;;;;5.15;0.98;;;15.70;99.90;;;;;;4958840;28;20538;-61
2022/10/01 08:44:27;;;;;;;6.22;1.17;;;15.90;99.90;;;;;;4948874;28;20045;-59
2022/10/01 08:46:59;;;;;;;5.53;1.10;;;16.00;99.90;;;;;;4969066;28;20027;-59
2022/10/01 08:49:39;;;;;;;11.07;1.90;;;16.00;99.90;;;;;;4971163;28;20030;-58
2022/10/01 08:52:11;;;;;;;4.47;1.45;;;16.00;99.90;;;;;;4969077;28;20486;-59
2022/10/01 08:54:49;;;;;;;3.92;0.80;;;16.00;99.90;;;;;;4967409;28;20557;-58
2022/10/01 08:57:19;;;;;;;4.70;0.85;;;16.00;99.90;;;;;;4967257;28;20041;-58
2022/10/01 08:59:49;;;;;;;8.32;0.88;;;16.10;99.90;;;;;;4975656;28;20077;-58
2022/10/01 09:02:27;;;;;;;8.00;1.08;;;16.10;99.90;;;;;;4970832;28;20035;-59
2022/10/01 09:05:24;;;;;;;3.20;1.17;;;16.20;99.90;;;;;;4968629;28;20402;-60
2022/10/01 09:08:42;;;;;;;6.80;0.90;;;16.30;99.90;;;;;;4965866;28;20042;-59
2022/10/01 09:11:25;;;;;;;8.70;0.93;;;16.30;99.90;;;;;;4966536;28;20027;-58
2022/10/01 09:14:07;;;;;;;6.03;0.80;;;16.40;99.90;;;;;;4968115;28;20031;-59
2022/10/01 09:16:53;;;;;;;11.52;1.60;;;16.50;99.90;;;;;;4973749;28;20035;-60
2022/10/01 09:19:40;;;;;;;4.90;0.98;;;16.60;99.90;;;;;;4967074;28;20038;-59
2022/10/01 09:22:24;;;;;;;4.18;0.50;;;16.60;99.90;;;;;;4970449;28;20050;-58
2022/10/01 09:25:10;;;;;;;6.10;1.50;;;16.50;99.90;;;;;;4976194;28;20085;-60
2022/10/01 09:27:37;;;;;;;5.15;0.60;;;16.40;99.90;;;;;;4971665;28;20482;-58
2022/10/01 09:30:20;;;;;;;5.45;0.80;;;16.20;99.90;;;;;;4972693;28;20045;-59
2022/10/01 09:33:03;;;;;;;8.00;1.33;;;16.10;99.90;;;;;;4972698;28;20479;-59
2022/10/01 09:35:47;;;;;;;8.60;1.00;;;16.20;99.90;;;;;;4967313;28;20038;-60
2022/10/01 09:38:17;;;;;;;4.45;1.40;;;16.10;99.90;;;;;;4972435;28;20121;-60
2022/10/01 09:40:54;;;;;;;8.88;1.63;;;16.10;99.90;;;;;;4972491;28;20509;-59
2022/10/01 09:43:28;;;;;;;7.25;1.25;;;16.00;99.90;;;;;;4969003;28;20396;-60
2022/10/01 09:45:54;;;;;;;6.53;1.02;;;16.00;99.90;;;;;;4972910;28;20482;-58
2022/10/01 09:48:19;;;;;;;7.90;1.95;;;16.10;99.90;;;;;;4969374;28;20034;-58
2022/10/01 09:51:08;;;;;;;9.93;2.13;;;16.20;99.90;;;;;;4968719;28;20027;-59
2022/10/01 09:53:44;;;;;;;9.98;0.80;;;16.40;99.90;;;;;;4947102;28;20053;-58
2022/10/01 09:56:29;;;;;;;7.95;1.77;;;16.50;99.90;;;;;;4946742;28;20031;-59
2022/10/01 09:59:00;;;;;;;11.25;1.52;;;16.50;99.90;;;;;;4949076;29;20070;-59
2022/10/01 10:01:46;;;;;;;4.50;0.97;;;16.60;99.90;;;;;;4948307;28;20078;-59
2022/10/01 10:04:19;;;;;;;17.05;1.35;;;16.60;99.90;;;;;;4949480;28;20327;-59
2022/10/01 10:06:45;;;;;;;6.40;1.02;;;16.60;99.90;;;;;;4949643;28;20461;-59
2022/10/01 10:09:18;;;;;;;9.63;1.30;;;16.60;99.90;;;;;;4948408;28;20039;-59
2022/10/01 10:11:44;;;;;;;5.07;0.85;;;16.70;99.90;;;;;;4948749;28;20035;-58
2022/10/01 10:14:43;;;;;;;10.20;1.42;;;16.70;99.90;;;;;;4946931;28;20069;-59
2022/10/01 10:17:15;;;;;;;4.50;1.10;;;16.80;99.90;;;;;;4948194;28;20031;-59
2022/10/01 10:19:50;;;;;;;3.53;0.93;;;16.70;99.90;;;;;;4950170;28;20027;-58
2022/10/01 10:22:25;;;;;;;4.22;1.13;;;16.70;99.90;;;;;;4947653;28;20034;-59
2022/10/01 10:24:57;;;;;;;5.93;1.13;;;16.80;99.90;;;;;;4928411;28;20393;-60
2022/10/01 10:27:28;;;;;;;5.60;1.77;;;16.90;99.90;;;;;;4940541;29;20043;-59
2022/10/01 10:30:15;;;;;;;5.15;1.17;;;17.00;99.90;;;;;;4948947;28;20031;-58
2022/10/01 10:32:41;;;;;;;9.15;1.02;;;17.10;99.90;;;;;;4966404;28;20550;-59
2022/10/01 10:35:12;;;;;;;4.55;0.75;;;17.30;99.90;;;;;;4970593;28;20019;-59
2022/10/01 10:37:45;;;;;;;4.53;1.00;;;17.40;99.90;;;;;;4970626;28;20070;-58
2022/10/01 10:40:23;;;;;;;7.45;1.10;;;17.70;99.90;;;;;;4967844;28;20113;-59
2022/10/01 10:42:51;;;;;;;3.67;0.77;;;17.70;99.90;;;;;;4967488;28;20077;-59
2022/10/01 10:45:21;;;;;;;4.03;0.88;;;18.00;99.90;;;;;;4973688;28;20527;-60
2022/10/01 10:47:52;;;;;;;9.75;1.58;;;18.10;99.90;;;;;;4971324;28;20490;-60
2022/10/01 10:50:30;;;;;;;6.22;1.30;;;18.10;99.90;;;;;;4970215;28;20075;-58
2022/10/01 10:52:57;;;;;;;3.25;0.50;;;18.00;99.90;;;;;;4966678;28;20157;-60
2022/10/01 10:55:24;;;;;;;3.95;1.17;;;17.90;99.90;;;;;;4970593;28;20031;-58
2022/10/01 10:57:51;;;;;;;8.23;1.60;;;17.90;99.90;;;;;;4969847;28;20478;-59
2022/10/01 11:00:23;;;;;;;4.82;1.02;;;17.90;99.90;;;;;;4979454;28;20030;-59
2022/10/01 11:03:02;;;;;;;6.53;0.82;;;17.90;99.90;;;;;;4966925;28;20073;-58
2022/10/01 11:05:31;;;;;;;3.97;1.02;;;17.90;99.90;;;;;;4965577;28;20167;-59
2022/10/01 11:08:03;;;;;;;8.55;1.33;;;18.70;99.90;;;;;;4976285;28;20029;-59
2022/10/01 11:10:29;;;;;;;9.40;1.05;;;19.00;99.90;;;;;;4972207;28;20023;-61
2022/10/01 11:13:07;;;;;;;6.93;1.20;;;19.20;99.90;;;;;;4968603;28;20042;-59
2022/10/01 11:16:02;;;;;;;4.05;1.13;;;19.40;99.90;;;;;;4967170;28;20038;-60
2022/10/01 11:18:46;;;;;;;5.50;1.08;;;19.40;99.90;;;;;;4970631;28;20054;-59
2022/10/01 11:21:30;;;;;;;7.05;1.15;;;19.30;99.90;;;;;;4970810;28;20034;-60
2022/10/01 11:24:05;;;;;;;4.80;0.75;;;19.50;99.90;;;;;;4973415;28;20050;-60
2022/10/01 11:26:39;;;;;;;8.85;0.90;;;19.70;99.90;;;;;;4975907;28;20482;-59
2022/10/01 11:29:07;;;;;;;2.67;0.90;;;20.40;99.90;;;;;;4971544;28;20023;-59
2022/10/01 11:31:33;;;;;;;3.55;1.02;;;21.00;99.90;;;;;;4967652;28;20062;-60
2022/10/01 11:34:32;;;;;;;6.80;0.90;;;20.50;99.90;;;;;;4974321;28;20073;-59
2022/10/01 11:37:26;;;;;;;10.35;1.50;;;21.10;99.90;;;;;;4968780;28;20031;-58
2022/10/01 11:39:55;;;;;;;4.32;0.90;;;20.80;99.90;;;;;;4973373;28;20025;-59
2022/10/01 11:42:34;;;;;;;5.60;0.60;;;20.40;99.90;;;;;;4968318;28;20050;-59
2022/10/01 11:45:22;;;;;;;3.20;0.60;;;20.10;99.90;;;;;;4961701;28;20035;-59
2022/10/01 11:48:04;;;;;;;3.67;1.05;;;20.10;99.90;;;;;;4965488;28;20031;-59
2022/10/01 11:50:34;;;;;;;3.38;0.60;;;19.60;99.90;;;;;;4968781;28;20490;-60
2022/10/01 11:53:29;;;;;;;4.18;0.80;;;19.40;99.90;;;;;;4967290;28;20039;-59
2022/10/01 11:59:12;;;;;;;6.97;1.40;;;18.90;99.90;;;;;;4975216;28;20056;-58
2022/10/01 12:02:04;;;;;;;5.00;1.15;;;19.00;99.90;;;;;;4970922;28;20787;-60
2022/10/01 12:04:42;;;;;;;2.22;0.68;;;18.90;99.90;;;;;;4963655;28;20045;-59
2022/10/01 12:07:25;;;;;;;4.50;0.68;;;19.20;99.90;;;;;;4972896;28;20395;-59
2022/10/01 12:09:54;;;;;;;5.85;1.10;;;19.60;99.90;;;;;;4965204;28;20029;-58
2022/10/01 12:13:02;;;;;;;4.68;0.52;;;19.70;99.90;;;;;;4971844;28;20070;-60
2022/10/01 12:15:36;;;;;;;7.50;1.13;;;20.00;99.90;;;;;;4974495;28;20030;-58
2022/10/01 12:18:24;;;;;;;7.68;1.75;;;20.00;99.90;;;;;;4973353;28;20023;-59
2022/10/01 12:20:59;;;;;;;4.80;0.80;;;20.20;99.90;;;;;;4969833;28;20100;-59
2022/10/01 12:23:44;;;;;;;4.85;0.82;;;20.20;99.90;;;;;;4969449;28;20030;-58
2022/10/01 12:26:19;;;;;;;4.40;0.60;;;20.30;99.90;;;;;;4968257;28;20038;-59
2022/10/01 12:28:55;;;;;;;5.47;0.80;;;20.20;99.90;;;;;;4966935;28;20037;-59
2022/10/01 12:31:38;;;;;;;5.35;1.10;;;20.70;99.90;;;;;;4970799;28;20122;-58
2022/10/01 12:34:06;;;;;;;12.00;1.88;;;20.40;99.90;;;;;;4968399;28;20487;-62
2022/10/01 12:36:47;;;;;;;5.80;1.00;;;20.30;99.90;;;;;;4976501;28;20691;-58
2022/10/01 12:39:31;;;;;;;7.27;1.23;;;20.40;99.90;;;;;;4969616;28;20027;-58
2022/10/01 12:42:38;;;;;;;13.65;1.48;;;20.70;99.90;;;;;;4971034;28;20431;-59
2022/10/01 12:45:19;;;;;;;5.60;0.70;;;20.60;99.90;;;;;;4971724;28;20030;-59
2022/10/01 12:48:16;;;;;;;4.82;0.88;;;21.60;99.90;;;;;;4969987;28;20164;-59
2022/10/01 12:51:09;;;;;;;6.60;1.00;;;21.50;99.90;;;;;;4969500;28;20368;-59
2022/10/01 12:53:55;;;;;;;4.15;1.27;;;20.60;99.90;;;;;;4969612;28;20051;-60
2022/10/01 12:56:32;;;;;;;7.55;1.20;;;20.70;99.90;;;;;;4967073;28;20081;-59
2022/10/01 12:59:05;;;;;;;4.47;1.10;;;21.30;99.90;;;;;;4962954;28;20498;-58
2022/10/01 13:01:58;;;;;;;5.25;1.30;;;22.00;99.90;;;;;;4967521;28;20030;-60
2022/10/01 13:04:23;;;;;;;6.15;1.20;;;23.00;99.90;;;;;;4971729;28;20031;-58
2022/10/01 13:07:08;;;;;;;7.85;1.20;;;23.30;99.90;;;;;;4968605;28;20086;-59
2022/10/01 13:10:15;;;;;;;5.72;1.45;;;23.80;99.90;;;;;;4964176;28;20035;-58
2022/10/01 13:12:55;;;;;;;6.72;1.10;;;23.30;99.90;;;;;;4968961;28;20042;-58
2022/10/01 13:15:46;;;;;;;5.30;1.40;;;22.70;99.90;;;;;;4969632;28;20026;-58
2022/10/01 13:18:23;;;;;;;8.18;1.50;;;23.00;99.90;;;;;;4971623;28;20041;-58